createdAt,value
2018-07-26T00:02:27.852Z,6.87
2018-07-26T00:04:56.098Z,5.63
2018-07-26T00:07:24.421Z,4.83
2018-07-26T00:09:52.603Z,5.37
2018-07-26T00:12:20.792Z,4.57
2018-07-26T00:14:48.735Z,5.67
2018-07-26T00:17:16.915Z,4.70
2018-07-26T00:19:45.088Z,4.50
2018-07-26T00:22:13.859Z,5.97
2018-07-26T00:24:42.073Z,4.97
2018-07-26T00:27:10.237Z,5.47
2018-07-26T00:29:38.419Z,4.60
2018-07-26T00:32:06.384Z,5.60
2018-07-26T00:34:34.347Z,4.30
2018-07-26T00:37:02.524Z,5.43
2018-07-26T00:39:30.683Z,6.57
2018-07-26T00:41:58.863Z,4.63
2018-07-26T00:44:27.069Z,4.80
2018-07-26T00:46:55.254Z,4.17
2018-07-26T00:49:23.558Z,4.60
2018-07-26T00:51:51.767Z,8.03
2018-07-26T00:54:19.944Z,5.27
2018-07-26T00:56:47.883Z,5.83
2018-07-26T00:59:16.080Z,5.40
2018-07-26T01:01:44.335Z,5.40
2018-07-26T01:04:12.496Z,5.47
2018-07-26T01:06:40.647Z,5.30
2018-07-26T01:09:10.321Z,6.60
2018-07-26T01:11:38.739Z,7.47
2018-07-26T01:14:07.081Z,6.33
2018-07-26T01:16:35.292Z,9.83
2018-07-26T01:19:03.748Z,5.63
2018-07-26T01:21:31.926Z,6.23
2018-07-26T01:24:00.128Z,6.70
2018-07-26T01:26:28.296Z,5.83
2018-07-26T01:28:56.479Z,4.50
2018-07-26T01:31:24.679Z,8.43
2018-07-26T01:33:53.198Z,6.10
2018-07-26T01:36:21.376Z,5.60
2018-07-26T01:38:49.592Z,5.70
2018-07-26T01:41:17.787Z,5.47
2018-07-26T01:43:57.567Z,5.23
2018-07-26T01:46:26.642Z,5.83
2018-07-26T01:48:54.590Z,7.13
2018-07-26T01:51:22.571Z,5.63
2018-07-26T01:53:50.756Z,5.43
2018-07-26T01:56:18.707Z,5.80
2018-07-26T01:58:46.676Z,4.83
2018-07-26T02:01:14.627Z,6.97
2018-07-26T02:03:42.812Z,6.60
2018-07-26T02:06:11.114Z,5.77
2018-07-26T02:08:39.301Z,6.10
2018-07-26T02:11:07.509Z,8.40
2018-07-26T02:13:35.668Z,6.90
2018-07-26T02:16:03.864Z,6.13
2018-07-26T02:18:32.057Z,5.60
2018-07-26T02:21:00.224Z,6.20
2018-07-26T02:23:28.433Z,7.80
2018-07-26T02:25:56.585Z,7.60
2018-07-26T02:28:24.766Z,6.53
2018-07-26T02:30:52.702Z,9.70
2018-07-26T02:33:21.489Z,7.20
2018-07-26T02:35:49.665Z,6.93
2018-07-26T02:38:17.842Z,6.87
2018-07-26T02:40:46.029Z,7.40
2018-07-26T02:43:14.209Z,6.90
2018-07-26T02:45:42.141Z,6.77
2018-07-26T02:48:10.347Z,6.97
2018-07-26T02:50:38.519Z,8.03
2018-07-26T02:53:06.752Z,8.20
2018-07-26T02:55:34.924Z,9.57
2018-07-26T02:58:03.120Z,7.53
2018-07-26T03:00:31.296Z,8.03
2018-07-26T03:02:59.493Z,7.93
2018-07-26T03:05:27.848Z,8.43
2018-07-26T03:07:56.052Z,7.70
2018-07-26T03:10:23.998Z,7.27
2018-07-26T03:12:52.199Z,8.40
2018-07-26T03:15:20.174Z,7.97
2018-07-26T03:17:48.344Z,7.90
2018-07-26T03:20:16.275Z,9.47
2018-07-26T03:22:44.464Z,11.67
2018-07-26T03:25:12.664Z,7.87
2018-07-26T03:27:40.595Z,8.37
2018-07-26T03:30:08.899Z,11.40
2018-07-26T03:32:36.836Z,10.70
2018-07-26T03:35:05.021Z,10.97
2018-07-26T03:37:33.194Z,7.67
2018-07-26T03:40:01.352Z,8.50
2018-07-26T03:42:29.675Z,7.43
2018-07-26T03:44:57.900Z,7.57
2018-07-26T03:47:26.081Z,11.40
2018-07-26T03:49:54.272Z,8.73
2018-07-26T03:52:22.432Z,8.23
2018-07-26T03:54:50.770Z,7.20
2018-07-26T03:57:18.936Z,11.40
2018-07-26T03:59:47.110Z,9.70
2018-07-26T04:02:15.310Z,10.03
2018-07-26T04:04:43.513Z,8.57
2018-07-26T04:07:18.225Z,9.43
2018-07-26T04:09:46.204Z,9.47
2018-07-26T04:12:14.426Z,7.70
2018-07-26T04:14:42.622Z,8.43
2018-07-26T04:17:10.813Z,7.43
2018-07-26T04:19:39.005Z,10.27
2018-07-26T04:22:07.196Z,7.70
2018-07-26T04:24:35.139Z,9.90
2018-07-26T04:27:03.334Z,10.63
2018-07-26T04:29:31.508Z,9.80
2018-07-26T04:31:59.546Z,9.40
2018-07-26T04:34:27.627Z,9.20
2018-07-26T04:36:55.823Z,11.90
2018-07-26T04:39:23.838Z,10.40
2018-07-26T04:41:52.022Z,8.67
2018-07-26T04:44:21.106Z,8.50
2018-07-26T04:46:49.384Z,10.53
2018-07-26T04:49:17.552Z,8.13
2018-07-26T04:51:45.728Z,8.60
2018-07-26T04:54:13.894Z,9.60
2018-07-26T04:56:42.171Z,12.33
2018-07-26T04:59:10.451Z,10.57
2018-07-26T05:01:38.627Z,8.73
2018-07-26T05:04:06.812Z,10.17
2018-07-26T05:06:35.012Z,9.77
2018-07-26T05:09:03.855Z,12.07
2018-07-26T05:11:32.056Z,9.63
2018-07-26T05:14:00.227Z,9.10
2018-07-26T05:16:28.413Z,9.70
2018-07-26T05:18:56.609Z,9.53
2018-07-26T05:21:24.795Z,9.63
2018-07-26T05:23:52.743Z,11.60
2018-07-26T05:26:20.952Z,11.27
2018-07-26T05:28:49.242Z,10.23
2018-07-26T05:31:17.464Z,12.97
2018-07-26T05:33:45.651Z,14.77
2018-07-26T05:36:13.591Z,10.50
2018-07-26T05:38:41.793Z,10.57
2018-07-26T05:41:09.905Z,10.50
2018-07-26T05:43:38.178Z,10.67
2018-07-26T05:46:06.413Z,11.23
2018-07-26T05:48:34.403Z,11.50
2018-07-26T05:51:02.603Z,9.70
2018-07-26T05:53:30.780Z,18.13
2018-07-26T05:55:58.967Z,10.20
2018-07-26T05:58:27.164Z,9.83
2018-07-26T06:00:55.344Z,12.10
2018-07-26T06:03:23.515Z,11.33
2018-07-26T06:05:51.703Z,12.67
2018-07-26T06:08:20.542Z,11.20
2018-07-26T06:10:48.772Z,16.63
2018-07-26T06:13:16.951Z,11.40
2018-07-26T06:15:45.127Z,10.90
2018-07-26T06:18:13.316Z,10.87
2018-07-26T06:20:41.653Z,13.17
2018-07-26T06:23:09.788Z,10.57
2018-07-26T06:25:37.976Z,8.53
2018-07-26T06:28:06.195Z,11.90
2018-07-26T06:30:34.356Z,10.43
2018-07-26T06:33:02.299Z,13.20
2018-07-26T06:35:30.497Z,9.37
2018-07-26T06:37:58.487Z,9.03
2018-07-26T06:40:26.679Z,8.87
2018-07-26T06:42:54.858Z,10.77
2018-07-26T06:45:23.087Z,9.00
2018-07-26T06:47:51.027Z,12.50
2018-07-26T06:50:19.208Z,9.17
2018-07-26T06:52:47.494Z,8.83
2018-07-26T06:55:15.670Z,11.83
2018-07-26T06:57:43.850Z,11.97
2018-07-26T07:00:11.790Z,9.03
2018-07-26T07:02:40.512Z,9.60
2018-07-26T07:05:08.631Z,9.00
2018-07-26T07:07:36.813Z,8.07
2018-07-26T07:10:05.412Z,9.03
2018-07-26T07:12:33.560Z,9.13
2018-07-26T07:15:01.760Z,13.23
2018-07-26T07:17:29.922Z,7.17
2018-07-26T07:19:58.108Z,7.53
2018-07-26T07:22:26.263Z,10.50
2018-07-26T07:24:54.439Z,7.60
2018-07-26T07:27:22.623Z,10.03
2018-07-26T07:29:50.786Z,10.13
2018-07-26T07:32:19.856Z,7.50
2018-07-26T07:34:48.043Z,9.53
2018-07-26T07:37:16.222Z,10.30
2018-07-26T07:39:44.400Z,12.17
2018-07-26T07:42:12.583Z,15.80
2018-07-26T07:44:40.767Z,13.73
2018-07-26T07:47:08.940Z,9.77
2018-07-26T07:49:37.107Z,8.90
2018-07-26T07:52:05.520Z,9.27
2018-07-26T07:54:33.463Z,7.63
2018-07-26T07:57:01.652Z,8.60
2018-07-26T07:59:29.703Z,9.37
2018-07-26T08:01:57.849Z,9.33
2018-07-26T08:04:26.014Z,10.37
2018-07-26T08:06:54.237Z,7.80
2018-07-26T08:09:22.415Z,11.10
2018-07-26T08:11:50.359Z,10.97
2018-07-26T08:14:18.549Z,7.77
2018-07-26T08:16:46.724Z,7.07
2018-07-26T08:19:14.903Z,10.30
2018-07-26T08:21:42.822Z,8.07
2018-07-26T08:24:11.015Z,10.93
2018-07-26T08:26:39.200Z,9.00
2018-07-26T08:29:07.388Z,12.47
2018-07-26T08:31:35.606Z,8.43
2018-07-26T08:34:03.784Z,9.87
2018-07-26T08:36:31.961Z,7.33
2018-07-26T08:39:00.151Z,8.77
2018-07-26T08:41:28.328Z,9.67
2018-07-26T08:43:56.643Z,13.13
2018-07-26T08:46:24.627Z,11.90
2018-07-26T08:48:52.797Z,11.17
2018-07-26T08:51:20.755Z,8.00
2018-07-26T08:53:48.706Z,10.73
2018-07-26T08:56:16.896Z,9.57
2018-07-26T08:58:44.834Z,9.47
2018-07-26T09:01:13.025Z,12.40
2018-07-26T09:03:41.207Z,7.27
2018-07-26T09:06:09.309Z,9.83
2018-07-26T09:08:37.483Z,10.60
2018-07-26T09:11:05.680Z,7.60
2018-07-26T09:13:33.895Z,11.43
2018-07-26T09:16:02.043Z,7.00
2018-07-26T09:18:30.228Z,9.83
2018-07-26T09:20:58.553Z,10.37
2018-07-26T09:23:26.914Z,7.63
2018-07-26T09:25:55.342Z,9.13
2018-07-26T09:28:23.532Z,6.57
2018-07-26T09:30:51.776Z,10.03
2018-07-26T09:33:20.861Z,6.50
2018-07-26T09:35:49.079Z,6.60
2018-07-26T09:38:17.308Z,7.60
2018-07-26T09:40:45.495Z,7.60
2018-07-26T09:43:13.674Z,7.23
2018-07-26T09:45:41.855Z,6.73
2018-07-26T09:48:10.056Z,6.87
2018-07-26T09:50:38.227Z,8.37
2018-07-26T09:53:06.423Z,7.40
2018-07-26T09:55:34.421Z,7.07
2018-07-26T09:58:02.616Z,7.20
2018-07-26T10:00:36.039Z,6.20
2018-07-26T10:03:04.217Z,6.40
2018-07-26T10:05:32.384Z,8.17
2018-07-26T10:08:00.573Z,8.53
2018-07-26T10:10:28.751Z,5.60
2018-07-26T10:12:56.776Z,7.03
2018-07-26T10:15:24.972Z,6.20
2018-07-26T10:17:53.144Z,5.53
2018-07-26T10:20:21.314Z,6.30
2018-07-26T10:22:49.508Z,6.27
2018-07-26T10:25:17.490Z,6.80
2018-07-26T10:27:45.728Z,6.20
2018-07-26T10:30:13.868Z,7.37
2018-07-26T10:32:42.079Z,6.37
2018-07-26T10:35:10.276Z,10.57
2018-07-26T10:37:38.211Z,6.03
2018-07-26T10:40:06.419Z,7.77
2018-07-26T10:42:34.340Z,7.80
2018-07-26T10:45:02.524Z,6.07
2018-07-26T10:47:30.704Z,6.80
2018-07-26T10:52:33.607Z,6.20
2018-07-26T10:55:01.813Z,5.57
2018-07-26T10:57:29.775Z,6.63
2018-07-26T10:59:57.739Z,5.40
2018-07-26T11:02:25.911Z,5.20
2018-07-26T11:04:54.089Z,5.90
2018-07-26T11:07:22.031Z,5.80
2018-07-26T11:09:50.385Z,5.90
2018-07-26T11:12:18.572Z,4.87
2018-07-26T11:14:46.748Z,6.30
2018-07-26T11:17:14.919Z,5.27
2018-07-26T11:19:43.109Z,7.40
2018-07-26T11:22:11.291Z,4.50
2018-07-26T11:24:43.705Z,4.77
2018-07-26T11:27:11.892Z,3.97
2018-07-26T11:29:40.123Z,8.73
2018-07-26T11:32:08.329Z,9.40
2018-07-26T11:34:36.875Z,4.10
2018-07-26T11:37:04.824Z,5.40
2018-07-26T11:39:33.007Z,5.40
2018-07-26T11:42:01.233Z,5.30
2018-07-26T11:44:29.434Z,4.40
2018-07-26T11:46:57.668Z,5.37
2018-07-26T11:49:25.840Z,4.80
2018-07-26T11:51:54.036Z,3.70
2018-07-26T11:54:22.203Z,3.60
2018-07-26T11:56:50.405Z,3.97
2018-07-26T11:59:18.607Z,3.63
2018-07-26T12:01:46.543Z,3.37
2018-07-26T12:04:14.715Z,6.00
2018-07-26T12:06:42.902Z,3.33
2018-07-26T12:09:11.212Z,3.10
2018-07-26T12:11:39.632Z,3.33
2018-07-26T12:14:08.264Z,3.70
2018-07-26T12:16:36.426Z,3.47
2018-07-26T12:19:04.601Z,4.20
2018-07-26T12:21:32.771Z,3.10
2018-07-26T12:24:00.980Z,6.30
2018-07-26T12:26:29.138Z,2.50
2018-07-26T12:28:57.151Z,3.07
2018-07-26T12:31:25.547Z,3.20
2018-07-26T12:33:53.733Z,2.83
2018-07-26T12:36:21.924Z,3.40
2018-07-26T12:38:49.860Z,4.30
2018-07-26T12:41:18.107Z,2.87
2018-07-26T12:43:46.326Z,3.73
2018-07-26T12:46:14.516Z,3.20
2018-07-26T12:48:42.696Z,3.33
2018-07-26T12:51:10.668Z,6.00
2018-07-26T12:53:38.647Z,3.27
2018-07-26T12:56:06.830Z,3.10
2018-07-26T12:58:35.043Z,3.20
2018-07-26T13:01:03.249Z,2.80
2018-07-26T13:03:31.248Z,3.57
2018-07-26T13:05:59.436Z,2.50
2018-07-26T13:08:27.623Z,4.00
2018-07-26T13:10:55.826Z,3.50
2018-07-26T13:13:24.013Z,2.77
2018-07-26T13:15:52.184Z,2.57
2018-07-26T13:18:20.902Z,3.43
2018-07-26T13:20:49.097Z,3.50
2018-07-26T13:23:17.287Z,3.27
2018-07-26T13:25:45.487Z,3.53
2018-07-26T13:28:13.685Z,2.90
2018-07-26T13:30:41.868Z,6.20
2018-07-26T13:33:10.080Z,3.03
2018-07-26T13:35:38.347Z,2.90
2018-07-26T13:38:06.519Z,3.20
2018-07-26T13:40:34.713Z,2.67
2018-07-26T13:43:02.900Z,3.00
2018-07-26T13:45:31.080Z,7.50
2018-07-26T13:47:59.259Z,3.23
2018-07-26T13:50:27.215Z,3.77
2018-07-26T13:52:55.384Z,3.50
2018-07-26T13:55:23.565Z,4.90
2018-07-26T13:57:51.972Z,3.27
2018-07-26T14:00:20.135Z,4.03
2018-07-26T14:02:48.348Z,4.10
2018-07-26T14:05:16.552Z,3.13
2018-07-26T14:07:44.740Z,6.53
2018-07-26T14:10:12.936Z,3.87
2018-07-26T14:12:41.108Z,3.80
2018-07-26T14:15:10.512Z,3.17
2018-07-26T14:17:38.881Z,2.87
2018-07-26T14:20:07.507Z,2.93
2018-07-26T14:22:35.699Z,3.43
2018-07-26T14:25:04.127Z,8.13
2018-07-26T14:27:32.310Z,3.83
2018-07-26T14:30:00.503Z,3.33
2018-07-26T14:32:28.671Z,4.00
2018-07-26T14:34:56.863Z,3.90
2018-07-26T14:37:25.024Z,4.37
2018-07-26T14:39:53.227Z,3.40
2018-07-26T14:42:22.327Z,4.03
2018-07-26T14:44:50.529Z,4.93
2018-07-26T14:47:18.463Z,3.70
2018-07-26T14:49:46.640Z,3.93
2018-07-26T14:52:14.827Z,3.87
2018-07-26T14:54:43.008Z,4.60
2018-07-26T14:57:10.954Z,3.10
2018-07-26T14:59:39.148Z,3.20
2018-07-26T15:02:07.551Z,6.10
2018-07-26T15:04:35.521Z,3.63
2018-07-26T15:07:03.735Z,3.63
2018-07-26T15:09:31.912Z,4.30
2018-07-26T15:12:00.105Z,3.80
2018-07-26T15:14:28.295Z,3.63
2018-07-26T15:16:56.279Z,4.30
2018-07-26T15:19:24.451Z,4.80
2018-07-26T15:21:52.665Z,3.90
2018-07-26T15:24:20.851Z,3.70
2018-07-26T15:26:49.056Z,8.00
2018-07-26T15:29:18.064Z,4.10
2018-07-26T15:31:46.276Z,4.13
2018-07-26T15:34:14.452Z,5.00
2018-07-26T15:36:42.632Z,4.37
2018-07-26T15:39:11.500Z,4.20
2018-07-26T15:41:42.916Z,3.50
2018-07-26T15:44:11.429Z,5.50
2018-07-26T15:46:39.776Z,4.37
2018-07-26T15:49:07.978Z,3.93
2018-07-26T15:51:36.165Z,3.50
2018-07-26T15:54:04.349Z,7.40
2018-07-26T15:56:32.520Z,4.33
2018-07-26T15:59:00.740Z,4.67
2018-07-26T16:01:28.810Z,4.87
2018-07-26T16:03:56.816Z,4.53
2018-07-26T16:06:25.163Z,3.50
2018-07-26T16:08:53.239Z,4.73
2018-07-26T16:11:21.564Z,4.40
2018-07-26T16:13:49.736Z,4.13
2018-07-26T16:16:17.912Z,4.30
2018-07-26T16:18:46.093Z,3.87
2018-07-26T16:21:14.276Z,3.60
2018-07-26T16:23:42.489Z,4.03
2018-07-26T16:26:10.672Z,4.13
2018-07-26T16:28:38.887Z,4.27
2018-07-26T16:31:07.052Z,4.33
2018-07-26T16:33:35.240Z,4.03
2018-07-26T16:36:03.429Z,4.40
2018-07-26T16:38:31.672Z,4.43
2018-07-26T16:40:59.899Z,4.13
2018-07-26T16:43:27.882Z,4.10
2018-07-26T16:45:56.069Z,4.90
2018-07-26T16:48:24.260Z,3.97
2018-07-26T16:50:52.462Z,3.90
2018-07-26T16:53:21.278Z,7.43
2018-07-26T16:55:49.467Z,4.47
2018-07-26T16:58:17.675Z,4.87
2018-07-26T17:00:45.831Z,5.40
2018-07-26T17:03:14.031Z,4.10
2018-07-26T17:05:42.205Z,4.70
2018-07-26T17:08:10.384Z,8.70
2018-07-26T17:10:38.572Z,4.70
2018-07-26T17:13:06.766Z,5.67
2018-07-26T17:15:34.863Z,4.53
2018-07-26T17:18:03.034Z,5.23
2018-07-26T17:20:31.315Z,6.90
2018-07-26T17:22:59.513Z,6.93
2018-07-26T17:25:27.975Z,6.20
2018-07-26T17:27:56.745Z,5.23
2018-07-26T17:30:25.151Z,7.93
2018-07-26T17:32:53.335Z,6.07
2018-07-26T17:35:22.083Z,6.87
2018-07-26T17:37:50.617Z,8.57
2018-07-26T17:40:18.807Z,7.77
2018-07-26T17:42:46.751Z,5.43
2018-07-26T17:45:14.968Z,7.73
2018-07-26T17:47:43.111Z,8.37
2018-07-26T17:50:11.852Z,7.00
2018-07-26T17:52:40.622Z,4.43
2018-07-26T17:55:09.187Z,4.97
2018-07-26T17:57:37.388Z,4.93
2018-07-26T18:00:08.216Z,4.97
2018-07-26T18:02:36.427Z,5.27
2018-07-26T18:05:05.460Z,5.77
2018-07-26T18:07:33.415Z,5.37
2018-07-26T18:10:01.619Z,6.13
2018-07-26T18:12:29.915Z,18.53
2018-07-26T18:14:58.113Z,26.97
2018-07-26T18:17:26.567Z,13.70
2018-07-26T18:19:54.757Z,16.80
2018-07-26T18:22:22.916Z,13.47
2018-07-26T18:24:51.176Z,7.30
2018-07-26T18:27:19.395Z,10.77
2018-07-26T18:29:47.846Z,7.07
2018-07-26T18:32:16.048Z,6.67
2018-07-26T18:34:44.219Z,7.80
2018-07-26T18:37:12.409Z,6.60
2018-07-26T18:39:40.608Z,6.57
2018-07-26T18:42:08.795Z,6.53
2018-07-26T18:44:36.964Z,6.73
2018-07-26T18:47:05.191Z,8.60
2018-07-26T18:49:33.386Z,10.90
2018-07-26T18:52:01.549Z,8.10
2018-07-26T18:54:29.870Z,8.93
2018-07-26T18:57:04.396Z,10.27
2018-07-26T18:59:32.574Z,8.33
2018-07-26T19:02:00.744Z,10.10
2018-07-26T19:04:28.968Z,9.10
2018-07-26T19:06:57.152Z,8.20
2018-07-26T19:09:25.324Z,8.07
2018-07-26T19:11:53.524Z,8.43
2018-07-26T19:14:21.712Z,7.63
2018-07-26T19:16:49.896Z,10.00
2018-07-26T19:19:18.102Z,7.43
2018-07-26T19:21:46.271Z,7.93
2018-07-26T19:24:14.467Z,9.50
2018-07-26T19:26:42.652Z,8.00
2018-07-26T19:29:10.596Z,9.80
2018-07-26T19:31:38.916Z,7.33
2018-07-26T19:34:07.124Z,10.40
2018-07-26T19:36:35.307Z,7.97
2018-07-26T19:39:04.871Z,8.53
2018-07-26T19:41:33.036Z,8.77
2018-07-26T19:44:01.272Z,8.83
2018-07-26T19:46:29.399Z,8.17
2018-07-26T19:48:57.589Z,14.07
2018-07-26T19:51:25.779Z,14.33
2018-07-26T19:53:54.005Z,11.37
2018-07-26T19:56:22.173Z,8.20
2018-07-26T19:58:50.158Z,9.80
2018-07-26T20:01:18.528Z,10.83
2018-07-26T20:03:46.961Z,11.40
2018-07-26T20:06:15.168Z,9.23
2018-07-26T20:08:43.111Z,10.63
2018-07-26T20:11:11.365Z,9.73
2018-07-26T20:13:39.534Z,8.30
2018-07-26T20:16:07.732Z,9.37
2018-07-26T20:18:35.917Z,11.27
2018-07-26T20:21:04.172Z,11.23
2018-07-26T20:23:32.367Z,12.23
2018-07-26T20:26:00.558Z,9.03
2018-07-26T20:28:28.589Z,10.20
2018-07-26T20:30:57.099Z,12.90
2018-07-26T20:33:25.293Z,11.17
2018-07-26T20:35:53.238Z,11.07
2018-07-26T20:38:21.444Z,9.60
2018-07-26T20:40:49.648Z,11.30
2018-07-26T20:43:17.928Z,10.57
2018-07-26T20:45:46.111Z,10.07
2018-07-26T20:48:14.381Z,11.10
2018-07-26T20:50:42.595Z,10.43
2018-07-26T20:53:10.444Z,10.97
2018-07-26T20:55:38.658Z,11.90
2018-07-26T20:58:06.858Z,9.70
2018-07-26T21:00:35.096Z,14.00
2018-07-26T21:03:03.089Z,11.07
2018-07-26T21:05:31.365Z,12.40
2018-07-26T21:07:59.561Z,10.37
2018-07-26T21:10:27.745Z,11.63
2018-07-26T21:12:56.189Z,11.53
2018-07-26T21:15:24.422Z,10.33
2018-07-26T21:17:53.179Z,12.30
2018-07-26T21:20:21.384Z,11.10
2018-07-26T21:22:49.555Z,10.30
2018-07-26T21:25:17.755Z,9.90
2018-07-26T21:27:46.072Z,10.33
2018-07-26T21:30:14.266Z,10.50
2018-07-26T21:32:42.504Z,10.07
2018-07-26T21:35:10.700Z,10.70
2018-07-26T21:37:38.885Z,9.37
2018-07-26T21:40:07.608Z,9.50
2018-07-26T21:42:35.809Z,9.40
2018-07-26T21:45:04.293Z,9.80
2018-07-26T21:47:32.456Z,9.63
2018-07-26T21:50:00.638Z,8.70
2018-07-26T21:52:28.810Z,9.93
2018-07-26T21:54:57.047Z,9.73
2018-07-26T21:57:24.992Z,9.60
2018-07-26T21:59:53.166Z,8.93
2018-07-26T22:02:21.426Z,9.17
2018-07-26T22:04:49.669Z,9.50
2018-07-26T22:07:17.858Z,9.50
2018-07-26T22:09:46.068Z,9.20
2018-07-26T22:12:14.248Z,10.50
2018-07-26T22:14:42.474Z,10.00
2018-07-26T22:17:10.815Z,9.77
2018-07-26T22:19:38.823Z,11.67
2018-07-26T22:22:07.568Z,10.07
2018-07-26T22:24:35.708Z,8.97
2018-07-26T22:27:03.909Z,10.67
2018-07-26T22:29:32.080Z,10.90
2018-07-26T22:32:00.260Z,11.97
2018-07-26T22:34:28.208Z,11.10
2018-07-26T22:36:56.725Z,12.40
2018-07-26T22:39:24.653Z,9.70
2018-07-26T22:41:52.820Z,9.80
2018-07-26T22:44:21.512Z,10.27
2018-07-26T22:46:49.707Z,12.90
2018-07-26T22:49:17.655Z,9.70
2018-07-26T22:51:45.848Z,10.60
2018-07-26T22:54:13.826Z,11.60
2018-07-26T22:56:41.779Z,9.77
2018-07-26T22:59:09.951Z,10.27
2018-07-26T23:01:38.124Z,10.27
2018-07-26T23:04:06.316Z,10.10
2018-07-26T23:06:34.314Z,11.50
2018-07-26T23:09:02.548Z,11.13
2018-07-26T23:11:30.716Z,10.40
2018-07-26T23:13:58.912Z,10.40
2018-07-26T23:16:26.850Z,12.13
2018-07-26T23:18:55.087Z,11.43
2018-07-26T23:21:23.266Z,10.87
2018-07-26T23:23:51.471Z,11.23
2018-07-26T23:26:19.750Z,10.67
2018-07-26T23:28:47.982Z,10.80
2018-07-26T23:31:16.167Z,10.40
2018-07-26T23:33:44.350Z,9.77
2018-07-26T23:36:12.526Z,10.60
2018-07-26T23:38:40.692Z,11.23
2018-07-26T23:41:08.887Z,11.10
2018-07-26T23:43:37.064Z,9.83
2018-07-26T23:46:05.523Z,11.33
2018-07-26T23:48:33.712Z,10.50
2018-07-26T23:51:01.900Z,11.37
2018-07-26T23:53:30.059Z,11.50
2018-07-26T23:55:58.244Z,14.83
2018-07-26T23:58:26.504Z,10.43
